SARP Airport Information

Runway Information
Runway 1 Length 7218 ft width 98 ft
Elevation 429 ft Threshold 0 ft Heading 359
Runway 19 Length 7218 ft Width 98 ft
Elevation 376 ft Threshold 0 ft Heading 179
Airport Frequencies
Type TWR Name TWR/APP Frequency 120.1 MHZ
Airport Navaids
Type VOR-DME Name Posadas Frequency 114900 KHZ
Airport Weather Information & NOTAM
ADDS - METARS form results

(0133 UTC 19 August 2018)
 
METAR text: SARP 190100Z 07002KT CAVOK 22/16 Q1017
Conditions at: SARP (POSADAS AIRPORT , AR) observed 0100 UTC 19 August 2018
Temperature: 22.0°C (72°F)
Dewpoint: 16.0°C (61°F) [RH = 69%]
Pressure (altimeter): 30.03 inches Hg (1017.0 mb)
Winds: from the ENE (70 degrees) at 2 MPH (2 knots; 1.0 m/s)
Visibility: 6 or more miles (10+ km)
Ceiling: ceiling and visibility are OK
Clouds: unknown
Weather: no significant weather observed at this time